createdAt,value
2022-10-11T00:00:46.679Z,80.86
2022-10-11T00:04:08.107Z,80.92
2022-10-11T00:07:29.249Z,80.49
2022-10-11T00:10:58.233Z,80.73
2022-10-11T00:14:19.423Z,80.59
2022-10-11T00:17:42.571Z,81.08
2022-10-11T00:21:06.204Z,80.67
2022-10-11T00:24:27.485Z,80.11
2022-10-11T00:27:48.858Z,80.36
2022-10-11T00:31:12.135Z,80.28
2022-10-11T00:34:35.342Z,80.50
2022-10-11T00:37:57.665Z,80.72
2022-10-11T00:41:19.495Z,80.37
2022-10-11T00:44:43.945Z,80.63
2022-10-11T00:48:12.848Z,80.20
2022-10-11T00:51:44.331Z,80.47
2022-10-11T00:55:08.960Z,80.84
2022-10-11T00:58:30.868Z,81.24
2022-10-11T01:01:52.319Z,81.00
2022-10-11T01:05:32.229Z,81.37
2022-10-11T01:08:55.574Z,81.13
2022-10-11T01:12:20.493Z,80.99
2022-10-11T01:15:48.667Z,81.50
2022-10-11T01:19:30.078Z,80.88
2022-10-11T01:23:21.568Z,81.49
2022-10-11T01:27:05.561Z,81.84
2022-10-11T01:30:30.320Z,81.20
2022-10-11T01:33:55.718Z,81.34
2022-10-11T01:37:24.814Z,81.80
2022-10-11T01:40:50.301Z,82.49
2022-10-11T01:44:13.735Z,82.49
2022-10-11T01:47:36.758Z,82.08
2022-10-11T01:51:01.772Z,82.29
2022-10-11T01:55:08.132Z,82.51
2022-10-11T01:58:39.307Z,82.50
2022-10-11T02:02:11.762Z,82.79
2022-10-11T02:05:42.223Z,83.53
2022-10-11T02:09:10.243Z,83.48
2022-10-11T02:12:38.741Z,83.80
2022-10-11T02:16:03.640Z,83.87
2022-10-11T02:19:31.217Z,84.40
2022-10-11T02:23:00.819Z,83.85
2022-10-11T02:26:24.633Z,83.80
2022-10-11T02:29:48.489Z,83.93
2022-10-11T02:33:14.391Z,83.93
2022-10-11T02:36:44.069Z,84.03
2022-10-11T02:40:12.244Z,84.43
2022-10-11T02:43:38.627Z,84.20
2022-10-11T02:50:23.945Z,84.40
2022-10-11T02:53:45.698Z,84.21
2022-10-11T02:57:08.365Z,84.63
2022-10-11T03:00:29.734Z,84.89
2022-10-11T03:03:51.690Z,84.43
2022-10-11T03:07:13.799Z,85.16
2022-10-11T03:10:35.271Z,84.89
2022-10-11T03:13:58.209Z,85.12
2022-10-11T03:17:35.597Z,85.20
2022-10-11T03:20:58.173Z,85.42
2022-10-11T03:24:19.925Z,85.73
2022-10-11T03:27:41.198Z,85.83
2022-10-11T03:31:04.490Z,86.01
2022-10-11T03:34:26.007Z,86.51
2022-10-11T03:37:47.615Z,86.28
2022-10-11T03:41:09.566Z,86.51
2022-10-11T03:44:31.225Z,86.84
2022-10-11T03:47:53.939Z,86.24
2022-10-11T03:51:16.094Z,86.31
2022-10-11T03:54:37.431Z,86.28
2022-10-11T03:57:58.789Z,86.24
2022-10-11T04:01:20.248Z,86.22
2022-10-11T04:04:43.450Z,86.46
2022-10-11T04:08:08.503Z,86.56
2022-10-11T04:11:33.143Z,86.81
2022-10-11T04:14:54.390Z,87.16
2022-10-11T04:18:16.181Z,87.61
2022-10-11T04:21:38.801Z,88.66
2022-10-11T04:25:00.646Z,88.77
2022-10-11T04:28:22.031Z,89.56
2022-10-11T04:31:43.700Z,89.61
2022-10-11T04:35:05.800Z,89.82
2022-10-11T04:38:28.710Z,89.96
2022-10-11T04:41:50.378Z,90.10
2022-10-11T04:45:11.891Z,90.18
2022-10-11T04:48:33.426Z,90.67
2022-10-11T04:51:54.801Z,89.97
2022-10-11T04:55:17.846Z,90.08
2022-10-11T04:58:41.531Z,90.03
2022-10-11T05:02:03.134Z,90.62
2022-10-11T05:05:25.192Z,90.92
2022-10-11T05:08:46.754Z,91.01
2022-10-11T05:12:10.003Z,90.92
2022-10-11T05:15:31.305Z,90.94
2022-10-11T05:18:53.334Z,91.19
2022-10-11T05:22:14.644Z,91.66
2022-10-11T05:25:36.050Z,91.89
2022-10-11T05:28:59.135Z,91.57
2022-10-11T05:32:20.765Z,91.32
2022-10-11T05:35:42.652Z,91.45
2022-10-11T05:39:04.194Z,92.09
2022-10-11T05:42:26.056Z,91.67
2022-10-11T05:45:49.159Z,91.45
2022-10-11T05:49:10.947Z,91.14
2022-10-11T05:52:32.267Z,90.57
2022-10-11T05:55:53.627Z,90.57
2022-10-11T05:59:15.215Z,90.39
2022-10-11T06:02:38.258Z,90.73
2022-10-11T06:06:03.416Z,90.52
2022-10-11T06:09:24.934Z,90.45
2022-10-11T06:12:46.389Z,90.73
2022-10-11T06:16:08.401Z,91.18
2022-10-11T06:19:31.593Z,90.79
2022-10-11T06:22:53.058Z,90.10
2022-10-11T06:26:14.903Z,90.10
2022-10-11T06:29:37.012Z,90.00
2022-10-11T06:33:02.395Z,89.74
2022-10-11T06:36:27.708Z,89.84
2022-10-11T06:39:48.963Z,89.65
2022-10-11T06:43:10.792Z,90.12
2022-10-11T06:46:33.339Z,90.03
2022-10-11T06:49:54.819Z,90.08
2022-10-11T06:53:17.885Z,90.16
2022-10-11T06:56:39.103Z,89.49
2022-10-11T07:00:00.945Z,89.01
2022-10-11T07:03:22.775Z,88.97
2022-10-11T07:06:44.046Z,89.02
2022-10-11T07:10:08.557Z,89.02
2022-10-11T07:13:30.175Z,89.27
2022-10-11T07:16:51.501Z,89.17
2022-10-11T07:20:13.600Z,89.30
2022-10-11T07:23:35.910Z,88.82
2022-10-11T07:26:58.913Z,88.22
2022-10-11T07:30:20.211Z,88.53
2022-10-11T07:33:42.124Z,88.42
2022-10-11T07:37:03.574Z,88.35
2022-10-11T07:40:25.388Z,88.37
2022-10-11T07:43:49.786Z,87.75
2022-10-11T07:47:11.502Z,86.87
2022-10-11T07:50:34.577Z,87.53
2022-10-11T07:53:58.116Z,87.89
2022-10-11T07:57:19.255Z,87.06
2022-10-11T08:00:42.726Z,86.47
2022-10-11T08:04:04.433Z,86.70
2022-10-11T08:07:26.294Z,85.84
2022-10-11T08:10:47.863Z,85.57
2022-10-11T08:14:11.297Z,85.64
2022-10-11T08:17:33.957Z,85.37
2022-10-11T08:20:55.250Z,85.29
2022-10-11T08:24:20.651Z,85.16
2022-10-11T08:27:41.908Z,83.62
2022-10-11T08:31:04.217Z,83.77
2022-10-11T08:34:27.029Z,83.13
2022-10-11T08:37:49.008Z,83.40
2022-10-11T08:41:30.317Z,82.95
2022-10-11T08:45:10.464Z,82.62
2022-10-11T08:48:36.422Z,81.67
2022-10-11T08:52:04.440Z,82.42
2022-10-11T08:55:33.263Z,81.75
2022-10-11T08:59:00.378Z,80.90
2022-10-11T09:03:06.518Z,80.05
2022-10-11T09:06:42.567Z,80.41
2022-10-11T09:10:22.975Z,79.51
2022-10-11T09:14:14.625Z,78.77
2022-10-11T09:17:48.612Z,77.58
2022-10-11T09:21:20.837Z,76.02
2022-10-11T09:24:58.875Z,76.62
2022-10-11T09:28:29.142Z,76.13
2022-10-11T09:31:54.978Z,75.88
2022-10-11T09:35:19.583Z,75.61
2022-10-11T09:38:47.190Z,74.36
2022-10-11T09:42:10.045Z,73.82
2022-10-11T09:45:32.825Z,72.64
2022-10-11T09:48:56.986Z,72.72
2022-10-11T09:52:20.758Z,71.39
2022-10-11T09:55:51.807Z,71.92
2022-10-11T09:59:26.713Z,71.47
2022-10-11T10:02:51.173Z,70.77
2022-10-11T10:06:17.439Z,70.92
2022-10-11T10:09:38.979Z,70.72
2022-10-11T10:13:02.901Z,70.17
2022-10-11T10:16:27.257Z,68.81
2022-10-11T10:19:52.691Z,67.85
2022-10-11T10:23:22.792Z,66.42
2022-10-11T10:27:20.999Z,66.90
2022-10-11T10:30:52.835Z,66.48
2022-10-11T10:34:19.274Z,67.58
2022-10-11T10:37:44.993Z,67.46
2022-10-11T10:41:10.515Z,67.75
2022-10-11T10:44:33.959Z,67.60
2022-10-11T10:48:15.345Z,66.11
2022-10-11T10:51:47.752Z,66.12
2022-10-11T10:55:27.604Z,65.75
2022-10-11T10:59:05.461Z,63.00
2022-10-11T11:02:40.583Z,62.56
2022-10-11T11:06:06.129Z,61.91
2022-10-11T11:09:41.849Z,62.68
2022-10-11T11:13:18.891Z,62.57
2022-10-11T11:16:46.213Z,60.93
2022-10-11T11:20:25.719Z,61.72
2022-10-11T11:23:54.281Z,60.81
2022-10-11T11:27:27.824Z,61.08
2022-10-11T11:30:58.943Z,60.04
2022-10-11T11:34:25.017Z,59.38
2022-10-11T11:37:51.089Z,58.47
2022-10-11T11:41:21.834Z,59.01
2022-10-11T11:44:47.954Z,60.55
2022-10-11T11:48:16.930Z,58.57
2022-10-11T11:51:42.472Z,58.23
2022-10-11T11:55:12.202Z,58.89
2022-10-11T11:58:41.844Z,60.23
2022-10-11T12:02:22.206Z,60.83
2022-10-11T12:06:20.500Z,61.37
2022-10-11T12:09:44.563Z,61.47
2022-10-11T12:13:19.024Z,61.29
2022-10-11T12:17:15.650Z,59.05
2022-10-11T12:20:40.833Z,54.74
2022-10-11T12:24:10.541Z,54.90
2022-10-11T12:27:38.207Z,55.93
2022-10-11T12:31:07.964Z,55.78
2022-10-11T12:34:35.786Z,54.79
2022-10-11T12:38:14.448Z,55.66
2022-10-11T12:41:53.642Z,56.28
2022-10-11T12:45:31.201Z,55.29
2022-10-11T12:49:01.610Z,55.03
2022-10-11T12:52:29.893Z,55.88
2022-10-11T12:55:59.318Z,56.66
2022-10-11T12:59:24.142Z,56.83
2022-10-11T13:02:45.869Z,57.59
2022-10-11T13:06:18.390Z,57.11
2022-10-11T13:09:46.584Z,57.47
2022-10-11T13:13:21.708Z,56.51
2022-10-11T13:16:50.868Z,56.19
2022-10-11T13:20:19.555Z,56.38
2022-10-11T13:23:42.699Z,57.11
2022-10-11T13:27:06.097Z,52.41
2022-10-11T13:30:31.589Z,52.01
2022-10-11T13:33:56.086Z,50.69
2022-10-11T13:37:19.523Z,49.57
2022-10-11T13:40:42.198Z,49.09
2022-10-11T13:44:04.609Z,49.39
2022-10-11T13:47:30.454Z,50.25
2022-10-11T13:51:08.689Z,50.46
2022-10-11T13:54:58.840Z,50.23
2022-10-11T13:58:28.469Z,49.75
2022-10-11T14:01:54.166Z,49.07
2022-10-11T14:05:24.636Z,49.49
2022-10-11T14:08:50.191Z,49.41
2022-10-11T14:12:33.544Z,48.04
2022-10-11T14:16:09.007Z,48.61
2022-10-11T14:19:30.628Z,48.78
2022-10-11T14:22:52.982Z,49.14
2022-10-11T14:26:18.747Z,49.89
2022-10-11T14:30:00.256Z,49.51
2022-10-11T14:33:27.756Z,48.81
2022-10-11T14:36:50.428Z,49.45
2022-10-11T14:40:15.118Z,50.33
2022-10-11T14:43:36.621Z,50.04
2022-10-11T14:46:57.953Z,50.34
2022-10-11T14:50:29.558Z,51.22
2022-10-11T14:53:51.468Z,50.14
2022-10-11T14:57:13.498Z,50.49
2022-10-11T15:00:35.611Z,50.57
2022-10-11T15:03:57.359Z,50.62
2022-10-11T15:07:20.523Z,51.08
2022-10-11T15:10:42.441Z,51.29
2022-10-11T15:14:03.866Z,51.67
2022-10-11T15:17:25.441Z,51.37
2022-10-11T15:20:47.795Z,52.42
2022-10-11T15:24:11.029Z,52.83
2022-10-11T15:27:32.310Z,53.30
2022-10-11T15:30:53.957Z,55.38
2022-10-11T15:34:15.441Z,56.68
2022-10-11T15:37:37.542Z,57.58
2022-10-11T15:41:00.679Z,58.38
2022-10-11T15:44:21.995Z,60.07
2022-10-11T15:47:43.888Z,60.14
2022-10-11T15:51:05.301Z,59.70
2022-10-11T15:54:26.804Z,61.13
2022-10-11T15:57:49.387Z,62.32
2022-10-11T16:01:14.343Z,62.64
2022-10-11T16:04:36.139Z,63.73
2022-10-11T16:07:57.263Z,64.65
2022-10-11T16:11:18.955Z,64.72
2022-10-11T16:14:46.280Z,65.44
2022-10-11T16:18:11.086Z,66.46
2022-10-11T16:21:32.339Z,67.07
2022-10-11T16:24:54.354Z,67.63
2022-10-11T16:28:15.952Z,67.91
2022-10-11T16:31:38.911Z,68.55
2022-10-11T16:35:00.578Z,69.04
2022-10-11T16:38:22.282Z,70.25
2022-10-11T16:41:44.521Z,70.78
2022-10-11T16:45:08.241Z,70.77
2022-10-11T16:48:31.205Z,70.88
2022-10-11T16:51:54.891Z,71.57
2022-10-11T16:55:16.632Z,71.18
2022-10-11T16:58:38.550Z,71.97
2022-10-11T17:02:00.029Z,72.59
2022-10-11T17:05:22.727Z,72.42
2022-10-11T17:08:44.600Z,73.14
2022-10-11T17:12:07.035Z,73.01
2022-10-11T17:15:30.056Z,72.96
2022-10-11T17:18:51.651Z,73.06
2022-10-11T17:22:16.782Z,73.77
2022-10-11T17:25:42.682Z,74.10
2022-10-11T17:29:04.274Z,73.88
2022-10-11T17:32:25.555Z,74.56
2022-10-11T17:35:47.348Z,74.82
2022-10-11T17:39:14.639Z,74.37
2022-10-11T17:42:35.848Z,75.42
2022-10-11T17:45:58.207Z,75.11
2022-10-11T17:49:19.502Z,75.44
2022-10-11T17:52:41.403Z,76.04
2022-10-11T17:56:07.734Z,76.36
2022-10-11T17:59:30.614Z,76.46
2022-10-11T18:02:53.512Z,76.51
2022-10-11T18:06:16.760Z,76.63
2022-10-11T18:09:38.350Z,76.85
2022-10-11T18:13:05.742Z,77.09
2022-10-11T18:16:30.227Z,77.38
2022-10-11T18:19:51.652Z,77.76
2022-10-11T18:23:13.405Z,77.67
2022-10-11T18:26:35.095Z,77.87
2022-10-11T18:29:58.344Z,78.17
2022-10-11T18:33:19.865Z,78.28
2022-10-11T18:36:41.747Z,78.35
2022-10-11T18:40:03.738Z,78.49
2022-10-11T18:43:25.022Z,78.45
2022-10-11T18:46:48.386Z,78.77
2022-10-11T18:50:10.305Z,78.86
2022-10-11T18:53:31.891Z,79.31
2022-10-11T18:56:53.760Z,79.43
2022-10-11T19:00:38.965Z,79.26
2022-10-11T19:04:00.940Z,79.66
2022-10-11T19:07:23.738Z,79.72
2022-10-11T19:10:45.342Z,79.48
2022-10-11T19:14:09.872Z,79.42
2022-10-11T19:17:31.089Z,79.55
2022-10-11T19:20:53.643Z,79.46
2022-10-11T19:24:14.979Z,79.44
2022-10-11T19:27:36.224Z,79.62
2022-10-11T19:31:05.199Z,79.48
2022-10-11T19:34:28.635Z,79.26
2022-10-11T19:37:51.471Z,79.41
2022-10-11T19:41:14.071Z,79.51
2022-10-11T19:44:38.706Z,80.10
2022-10-11T19:48:01.170Z,80.13
2022-10-11T19:51:24.273Z,80.52
2022-10-11T19:54:47.097Z,80.73
2022-10-11T19:58:08.911Z,80.68
2022-10-11T20:01:32.188Z,80.87
2022-10-11T20:04:54.031Z,80.81
2022-10-11T20:08:15.624Z,81.29
2022-10-11T20:11:38.495Z,81.18
2022-10-11T20:14:59.737Z,81.23
2022-10-11T20:18:20.988Z,81.22
2022-10-11T20:21:42.416Z,81.06
2022-10-11T20:25:03.901Z,81.10
2022-10-11T20:28:28.064Z,80.83
2022-10-11T20:31:49.730Z,80.21
2022-10-11T20:35:11.652Z,80.76
2022-10-11T20:38:34.576Z,80.50
2022-10-11T20:41:56.175Z,80.54
2022-10-11T20:45:18.786Z,80.82
2022-10-11T20:48:41.153Z,80.80
2022-10-11T20:52:02.525Z,80.28
2022-10-11T20:55:24.163Z,80.60
2022-10-11T20:58:46.542Z,80.40
2022-10-11T21:02:15.371Z,80.56
2022-10-11T21:05:39.751Z,80.82
2022-10-11T21:09:01.816Z,80.59
2022-10-11T21:12:23.600Z,80.10
2022-10-11T21:15:44.921Z,80.68
2022-10-11T21:19:07.430Z,80.90
2022-10-11T21:22:28.596Z,80.69
2022-10-11T21:25:49.873Z,80.22
2022-10-11T21:29:11.078Z,80.59
2022-10-11T21:32:32.797Z,79.96
2022-10-11T21:35:55.626Z,79.61
2022-10-11T21:39:17.042Z,79.75
2022-10-11T21:42:38.818Z,80.09
2022-10-11T21:46:00.754Z,80.21
2022-10-11T21:49:22.068Z,80.11
2022-10-11T21:52:44.766Z,80.52
2022-10-11T21:56:06.738Z,80.58
2022-10-11T21:59:28.349Z,80.60
2022-10-11T22:02:49.430Z,80.47
2022-10-11T22:06:11.076Z,80.73
2022-10-11T22:09:34.972Z,81.04
2022-10-11T22:12:57.069Z,80.85
2022-10-11T22:16:18.457Z,80.60
2022-10-11T22:19:39.896Z,80.92
2022-10-11T22:23:01.279Z,81.23
2022-10-11T22:26:25.714Z,81.50
2022-10-11T22:29:47.211Z,81.17
2022-10-11T22:33:08.515Z,80.94
2022-10-11T22:36:30.897Z,80.97
2022-10-11T22:39:52.431Z,81.12
2022-10-11T22:43:15.093Z,81.30
2022-10-11T22:46:36.398Z,81.26
2022-10-11T22:49:57.543Z,80.73
2022-10-11T22:53:19.803Z,80.45
2022-10-11T22:56:41.469Z,80.61
2022-10-11T23:00:05.336Z,80.74
2022-10-11T23:03:26.856Z,80.58
2022-10-11T23:06:48.573Z,80.47
2022-10-11T23:10:10.636Z,79.82
2022-10-11T23:13:32.229Z,80.20
2022-10-11T23:16:54.957Z,80.15
2022-10-11T23:20:16.432Z,80.05
2022-10-11T23:23:39.601Z,80.38
2022-10-11T23:27:01.173Z,80.48
2022-10-11T23:30:22.309Z,80.66
2022-10-11T23:33:45.758Z,80.49
2022-10-11T23:37:07.215Z,80.47
2022-10-11T23:40:28.860Z,80.43
2022-10-11T23:43:50.152Z,80.28
2022-10-11T23:47:11.778Z,80.56
2022-10-11T23:50:34.330Z,80.73
2022-10-11T23:53:55.454Z,81.14
2022-10-11T23:57:16.677Z,80.92
